createdAt,value
2023-05-21T00:00:49.288Z,101252.03
2023-05-21T00:01:49.783Z,101250.55
2023-05-21T00:02:50.503Z,101249.20
2023-05-21T00:03:50.968Z,101247.20
2023-05-21T00:04:51.477Z,101246.03
2023-05-21T00:05:00.136Z,100712.74
2023-05-21T00:06:00.819Z,101220.44
2023-05-21T00:07:01.617Z,101220.27
2023-05-21T00:08:02.204Z,101220.27
2023-05-21T00:09:02.743Z,101220.39
2023-05-21T00:10:03.272Z,101220.44
2023-05-21T00:11:03.868Z,101220.22
2023-05-21T00:12:04.513Z,101219.54
2023-05-21T00:13:04.917Z,101218.52
2023-05-21T00:14:05.414Z,101218.18
2023-05-21T00:15:05.791Z,101217.68
2023-05-21T00:16:06.184Z,101216.63
2023-05-21T00:17:06.645Z,101215.48
2023-05-21T00:18:07.116Z,101214.38
2023-05-21T00:19:07.160Z,101212.95
2023-05-21T00:20:07.654Z,101211.20
2023-05-21T00:21:08.597Z,101209.93
2023-05-21T00:22:08.760Z,101208.66
2023-05-21T00:23:09.406Z,101207.17
2023-05-21T00:24:10.092Z,101205.27
2023-05-21T00:25:10.802Z,101203.06
2023-05-21T00:26:11.587Z,101201.16
2023-05-21T00:27:13.435Z,101199.30
2023-05-21T00:28:12.841Z,101197.39
2023-05-21T00:29:13.481Z,101195.27
2023-05-21T00:30:14.221Z,101193.02
2023-05-21T00:31:14.559Z,101191.11
2023-05-21T00:32:15.194Z,101189.69
2023-05-21T00:33:15.949Z,101187.53
2023-05-21T00:34:17.796Z,101185.63
2023-05-21T00:34:26.605Z,100605.02
2023-05-21T00:35:27.229Z,101163.09
2023-05-21T00:36:29.014Z,101162.59
2023-05-21T00:37:28.729Z,101161.57
2023-05-21T00:38:29.371Z,101160.60
2023-05-21T00:39:29.982Z,101159.24
2023-05-21T00:40:30.821Z,101157.72
2023-05-21T00:41:31.584Z,101156.48
2023-05-21T00:42:32.335Z,101154.61
2023-05-21T00:43:32.976Z,101152.91
2023-05-21T00:44:33.591Z,101150.45
2023-05-21T00:45:34.412Z,101148.76
2023-05-21T00:46:35.306Z,101145.96
2023-05-21T00:47:35.874Z,101143.08
2023-05-21T00:48:36.375Z,101140.02
2023-05-21T00:49:37.284Z,101136.72
2023-05-21T00:50:37.359Z,101132.77
2023-05-21T00:51:38.470Z,101128.91
2023-05-21T00:52:38.200Z,101124.75
2023-05-21T00:53:38.758Z,101121.10
2023-05-21T00:54:39.486Z,101117.37
2023-05-21T00:55:40.265Z,101113.24
2023-05-21T00:56:41.068Z,101109.43
2023-05-21T00:57:41.252Z,101106.47
2023-05-21T00:58:41.751Z,101103.02
2023-05-21T00:59:42.230Z,101099.20
2023-05-21T01:00:42.986Z,101096.16
2023-05-21T01:01:43.654Z,101093.09
2023-05-21T01:02:44.584Z,101089.88
2023-05-21T01:03:45.080Z,101086.23
2023-05-21T01:04:45.794Z,101083.52
2023-05-21T01:04:57.561Z,100470.66
2023-05-21T01:05:58.407Z,101023.70
2023-05-21T01:06:59.088Z,101023.87
2023-05-21T01:07:59.788Z,101023.87
2023-05-21T01:09:00.390Z,101024.38
2023-05-21T01:10:01.055Z,101024.89
2023-05-21T01:11:01.844Z,101025.57
2023-05-21T01:12:02.584Z,101026.17
2023-05-21T01:13:03.280Z,101027.02
2023-05-21T01:14:03.988Z,101027.53
2023-05-21T01:15:04.790Z,101027.62
2023-05-21T01:16:05.125Z,101027.79
2023-05-21T01:17:06.130Z,101027.95
2023-05-21T01:18:06.871Z,101026.86
2023-05-21T01:19:07.902Z,101026.30
2023-05-21T01:20:09.272Z,101026.05
2023-05-21T01:21:09.257Z,101025.97
2023-05-21T01:22:10.052Z,101026.14
2023-05-21T01:23:10.680Z,101026.02
2023-05-21T01:24:11.213Z,101026.45
2023-05-21T01:25:11.696Z,101026.63
2023-05-21T01:26:12.305Z,101026.77
2023-05-21T01:27:12.900Z,101026.18
2023-05-21T01:28:13.522Z,101025.71
2023-05-21T01:29:14.018Z,101025.21
2023-05-21T01:30:14.489Z,101025.09
2023-05-21T01:31:15.181Z,101024.88
2023-05-21T01:32:15.767Z,101023.83
2023-05-21T01:33:16.535Z,101023.50
2023-05-21T01:34:16.620Z,101023.42
2023-05-21T01:35:16.839Z,101023.14
2023-05-21T01:36:17.649Z,101023.52
2023-05-21T01:36:26.384Z,100491.42
2023-05-21T01:37:27.196Z,101024.22
2023-05-21T01:38:27.894Z,101023.66
2023-05-21T01:39:28.481Z,101024.00
2023-05-21T01:40:28.987Z,101024.27
2023-05-21T01:41:29.686Z,101023.67
2023-05-21T01:42:30.343Z,101022.91
2023-05-21T01:43:30.961Z,101022.36
2023-05-21T01:44:31.594Z,101021.67
2023-05-21T01:45:32.302Z,101021.22
2023-05-21T01:46:32.981Z,101020.45
2023-05-21T01:47:33.627Z,101020.19
2023-05-21T01:48:34.217Z,101019.92
2023-05-21T01:49:34.773Z,101019.47
2023-05-21T01:50:35.175Z,101019.38
2023-05-21T01:51:35.247Z,101018.96
2023-05-21T01:52:35.765Z,101019.47
2023-05-21T01:53:36.208Z,101020.10
2023-05-21T01:54:36.628Z,101020.36
2023-05-21T01:55:37.268Z,101020.87
2023-05-21T01:56:37.375Z,101020.95
2023-05-21T01:57:37.822Z,101021.22
2023-05-21T01:58:38.219Z,101021.09
2023-05-21T01:59:38.722Z,101021.17
2023-05-21T02:00:39.354Z,101021.69
2023-05-21T02:01:39.902Z,101021.98
2023-05-21T02:02:40.505Z,101021.98
2023-05-21T02:03:41.031Z,101022.66
2023-05-21T02:04:41.601Z,101022.83
2023-05-21T02:05:42.213Z,101023.38
2023-05-21T02:06:42.957Z,101024.56
2023-05-21T02:07:43.872Z,101024.86
2023-05-21T02:07:54.618Z,100849.84
2023-05-21T02:08:54.778Z,101036.80
2023-05-21T02:09:55.397Z,101036.98
2023-05-21T02:10:56.081Z,101036.47
2023-05-21T02:11:56.572Z,101036.13
2023-05-21T02:12:57.430Z,101036.55
2023-05-21T02:13:58.064Z,101036.20
2023-05-21T02:14:58.874Z,101036.55
2023-05-21T02:15:59.700Z,101036.47
2023-05-21T02:16:59.954Z,101036.30
2023-05-21T02:18:00.120Z,101035.95
2023-05-21T02:19:00.811Z,101035.87
2023-05-21T02:20:01.273Z,101035.45
2023-05-21T02:21:01.972Z,101035.28
2023-05-21T02:22:02.476Z,101035.11
2023-05-21T02:23:03.326Z,101034.77
2023-05-21T02:24:03.847Z,101034.69
2023-05-21T02:25:04.295Z,101034.77
2023-05-21T02:26:04.769Z,101034.44
2023-05-21T02:27:06.031Z,101034.52
2023-05-21T02:28:05.895Z,101034.17
2023-05-21T02:29:06.401Z,101033.41
2023-05-21T02:30:06.846Z,101032.56
2023-05-21T02:31:07.355Z,101031.13
2023-05-21T02:32:07.366Z,101029.72
2023-05-21T02:33:07.947Z,101028.45
2023-05-21T02:34:08.499Z,101026.92
2023-05-21T02:35:09.444Z,101024.81
2023-05-21T02:36:09.893Z,101022.94
2023-05-21T02:37:11.400Z,101020.91
2023-05-21T02:38:10.952Z,101018.79
2023-05-21T02:39:11.492Z,101017.52
2023-05-21T02:40:12.018Z,101015.48
2023-05-21T02:40:20.905Z,100432.81
2023-05-21T02:41:21.403Z,100987.36
2023-05-21T02:42:21.418Z,100987.02
2023-05-21T02:43:21.973Z,100986.60
2023-05-21T02:44:22.921Z,100986.94
2023-05-21T02:45:23.846Z,100987.06
2023-05-21T02:46:24.291Z,100986.23
2023-05-21T02:47:25.832Z,100986.09
2023-05-21T02:48:25.241Z,100985.94
2023-05-21T02:49:25.320Z,100985.05
2023-05-21T02:50:26.099Z,100984.28
2023-05-21T02:51:27.963Z,100984.12
2023-05-21T02:52:28.077Z,100983.61
2023-05-21T02:53:27.868Z,100983.19
2023-05-21T02:54:28.612Z,100982.59
2023-05-21T02:55:28.805Z,100982.26
2023-05-21T02:56:29.122Z,100981.88
2023-05-21T02:57:30.169Z,100982.30
2023-05-21T02:58:29.983Z,100982.39
2023-05-21T02:59:30.710Z,100982.77
2023-05-21T03:00:31.488Z,100982.61
2023-05-21T03:01:32.301Z,100982.70
2023-05-21T03:02:33.055Z,100982.50
2023-05-21T03:03:33.674Z,100982.12
2023-05-21T03:04:34.388Z,100981.91
2023-05-21T03:05:35.347Z,100981.41
2023-05-21T03:06:36.074Z,100980.94
2023-05-21T03:07:36.794Z,100980.39
2023-05-21T03:08:36.894Z,100979.85
2023-05-21T03:09:37.696Z,100979.95
2023-05-21T03:10:38.404Z,100980.08
2023-05-21T03:10:51.200Z,100401.66
2023-05-21T03:11:52.362Z,100980.57
2023-05-21T03:12:52.123Z,100980.95
2023-05-21T03:13:52.285Z,100981.09
2023-05-21T03:14:52.297Z,100981.44
2023-05-21T03:15:53.804Z,100982.58
2023-05-21T03:16:53.435Z,100982.67
2023-05-21T03:17:53.787Z,100983.22
2023-05-21T03:18:54.692Z,100983.41
2023-05-21T03:19:55.169Z,100983.61
2023-05-21T03:20:55.815Z,100983.15
2023-05-21T03:21:56.390Z,100982.90
2023-05-21T03:22:56.796Z,100982.23
2023-05-21T03:23:57.520Z,100981.84
2023-05-21T03:24:57.727Z,100981.50
2023-05-21T03:25:58.464Z,100981.50
2023-05-21T03:26:58.940Z,100981.33
2023-05-21T03:27:59.514Z,100980.91
2023-05-21T03:29:00.202Z,100980.75
2023-05-21T03:30:00.684Z,100980.53
2023-05-21T03:31:02.200Z,100980.28
2023-05-21T03:32:01.825Z,100980.20
2023-05-21T03:33:02.416Z,100979.91
2023-05-21T03:34:03.018Z,100979.83
2023-05-21T03:35:03.542Z,100979.45
2023-05-21T03:36:04.030Z,100979.13
2023-05-21T03:37:04.820Z,100978.83
2023-05-21T03:38:05.383Z,100979.17
2023-05-21T03:39:05.998Z,100978.84
2023-05-21T03:40:06.685Z,100978.03
2023-05-21T03:41:07.577Z,100977.49
2023-05-21T03:42:08.290Z,100977.24
2023-05-21T03:42:22.384Z,100465.94
2023-05-21T03:43:21.945Z,100963.41
2023-05-21T03:44:23.766Z,100962.99
2023-05-21T03:45:23.227Z,100962.95
2023-05-21T03:46:23.790Z,100963.20
2023-05-21T03:47:24.719Z,100963.38
2023-05-21T03:48:25.164Z,100963.21
2023-05-21T03:49:25.672Z,100963.08
2023-05-21T03:50:26.246Z,100963.17
2023-05-21T03:51:26.688Z,100962.92
2023-05-21T03:52:27.615Z,100963.22
2023-05-21T03:53:28.411Z,100963.05
2023-05-21T03:54:29.091Z,100963.36
2023-05-21T03:55:29.878Z,100963.33
2023-05-21T03:56:30.487Z,100962.66
2023-05-21T03:57:30.626Z,100962.45
2023-05-21T03:58:31.364Z,100961.58
2023-05-21T03:59:32.123Z,100960.27
2023-05-21T04:00:32.773Z,100959.47
2023-05-21T04:01:33.471Z,100958.36
2023-05-21T04:02:34.000Z,100957.47
2023-05-21T04:03:34.548Z,100956.54
2023-05-21T04:04:35.041Z,100956.03
2023-05-21T04:05:35.317Z,100955.52
2023-05-21T04:06:35.472Z,100954.75
2023-05-21T04:07:36.058Z,100953.91
2023-05-21T04:08:36.454Z,100953.23
2023-05-21T04:09:37.063Z,100953.15
2023-05-21T04:10:37.563Z,100952.72
2023-05-21T04:11:37.973Z,100951.92
2023-05-21T04:12:39.343Z,100951.53
2023-05-21T04:13:38.693Z,100951.24
2023-05-21T04:14:39.197Z,100950.98
2023-05-21T04:14:47.900Z,100446.72
2023-05-21T04:15:48.601Z,100943.27
2023-05-21T04:16:49.264Z,100943.02
2023-05-21T04:17:49.791Z,100942.67
2023-05-21T04:18:50.360Z,100942.97
2023-05-21T04:19:50.803Z,100943.22
2023-05-21T04:20:51.252Z,100942.95
2023-05-21T04:21:51.628Z,100943.20
2023-05-21T04:22:52.033Z,100943.72
2023-05-21T04:23:52.524Z,100944.27
2023-05-21T04:24:52.870Z,100944.86
2023-05-21T04:25:53.265Z,100945.20
2023-05-21T04:26:53.708Z,100945.63
2023-05-21T04:27:54.314Z,100945.80
2023-05-21T04:28:54.868Z,100945.80
2023-05-21T04:29:55.328Z,100945.58
2023-05-21T04:30:55.755Z,100945.75
2023-05-21T04:31:56.117Z,100945.75
2023-05-21T04:32:56.570Z,100945.92
2023-05-21T04:33:57.291Z,100946.09
2023-05-21T04:34:57.884Z,100946.48
2023-05-21T04:35:58.460Z,100946.73
2023-05-21T04:36:59.072Z,100946.90
2023-05-21T04:38:00.201Z,100947.23
2023-05-21T04:39:00.272Z,100948.00
2023-05-21T04:40:00.264Z,100947.88
2023-05-21T04:41:00.916Z,100947.80
2023-05-21T04:42:01.499Z,100947.97
2023-05-21T04:43:02.069Z,100948.39
2023-05-21T04:44:02.577Z,100948.34
2023-05-21T04:45:02.980Z,100948.27
2023-05-21T04:46:03.595Z,100948.09
2023-05-21T04:47:04.168Z,100948.05
2023-05-21T04:48:04.584Z,100948.13
2023-05-21T04:48:13.681Z,100357.63
2023-05-21T04:49:14.533Z,100957.92
2023-05-21T04:50:15.207Z,100957.42
2023-05-21T04:51:15.839Z,100957.12
2023-05-21T04:52:16.395Z,100956.75
2023-05-21T04:53:16.532Z,100956.58
2023-05-21T04:54:17.035Z,100956.46
2023-05-21T04:55:17.643Z,100956.37
2023-05-21T04:56:18.543Z,100957.00
2023-05-21T04:57:19.061Z,100956.86
2023-05-21T04:58:19.663Z,100956.34
2023-05-21T04:59:20.204Z,100956.67
2023-05-21T05:00:20.893Z,100956.87
2023-05-21T05:01:21.575Z,100957.36
2023-05-21T05:02:22.031Z,100957.64
2023-05-21T05:03:22.710Z,100958.13
2023-05-21T05:04:23.281Z,100958.55
2023-05-21T05:05:23.913Z,100959.52
2023-05-21T05:06:24.478Z,100960.91
2023-05-21T05:07:25.111Z,100961.87
2023-05-21T05:08:25.802Z,100962.71
2023-05-21T05:09:26.381Z,100964.09
2023-05-21T05:10:26.804Z,100964.63
2023-05-21T05:11:27.206Z,100965.39
2023-05-21T05:12:27.499Z,100967.45
2023-05-21T05:13:27.946Z,100969.31
2023-05-21T05:14:28.396Z,100970.95
2023-05-21T05:15:28.818Z,100972.34
2023-05-21T05:16:29.306Z,100973.73
2023-05-21T05:17:29.565Z,100975.13
2023-05-21T05:18:29.957Z,100976.77
2023-05-21T05:19:30.516Z,100978.20
2023-05-21T05:20:30.726Z,100978.73
2023-05-21T05:20:39.362Z,100586.70
2023-05-21T05:21:39.648Z,101002.41
2023-05-21T05:22:40.093Z,101001.98
2023-05-21T05:23:40.644Z,101002.52
2023-05-21T05:24:41.047Z,101002.56
2023-05-21T05:25:41.545Z,101002.51
2023-05-21T05:26:42.008Z,101003.21
2023-05-21T05:27:42.304Z,101003.80
2023-05-21T05:28:43.674Z,101004.16
2023-05-21T05:29:42.803Z,101005.04
2023-05-21T05:30:43.766Z,101004.94
2023-05-21T05:31:44.149Z,101005.27
2023-05-21T05:32:44.551Z,101005.84
2023-05-21T05:33:44.651Z,101006.08
2023-05-21T05:34:45.408Z,101006.82
2023-05-21T05:35:45.678Z,101007.48
2023-05-21T05:36:45.997Z,101007.89
2023-05-21T05:37:46.418Z,101009.22
2023-05-21T05:38:46.858Z,101010.42
2023-05-21T05:39:47.150Z,101011.75
2023-05-21T05:40:47.591Z,101012.72
2023-05-21T05:41:48.396Z,101014.55
2023-05-21T05:42:49.341Z,101015.69
2023-05-21T05:43:49.736Z,101017.42
2023-05-21T05:44:50.132Z,101018.64
2023-05-21T05:45:51.102Z,101020.59
2023-05-21T05:46:51.480Z,101021.88
2023-05-21T05:47:52.547Z,101024.00
2023-05-21T05:48:52.989Z,101025.45
2023-05-21T05:49:53.187Z,101028.05
2023-05-21T05:50:53.675Z,101029.66
2023-05-21T05:51:05.721Z,100494.22
2023-05-21T05:52:05.067Z,101065.09
2023-05-21T05:53:07.085Z,101065.33
2023-05-21T05:54:06.565Z,101065.13
2023-05-21T05:55:07.426Z,101065.45
2023-05-21T05:56:08.020Z,101066.08
2023-05-21T05:57:08.755Z,101067.39
2023-05-21T05:58:08.716Z,101067.89
2023-05-21T05:59:09.165Z,101069.55
2023-05-21T06:00:09.410Z,101070.91
2023-05-21T06:01:10.870Z,101072.09
2023-05-21T06:02:10.274Z,101073.42
2023-05-21T06:03:10.806Z,101075.09
2023-05-21T06:04:11.180Z,101075.96
2023-05-21T06:05:11.540Z,101076.70
2023-05-21T06:06:12.213Z,101077.34
2023-05-21T06:07:12.448Z,101078.08
2023-05-21T06:08:12.817Z,101078.48
2023-05-21T06:09:13.185Z,101079.49
2023-05-21T06:10:13.604Z,101080.00
2023-05-21T06:11:14.124Z,101080.23
2023-05-21T06:12:15.126Z,101079.36
2023-05-21T06:13:14.874Z,101078.78
2023-05-21T06:14:15.262Z,101078.27
2023-05-21T06:15:15.595Z,101077.84
2023-05-21T06:16:16.186Z,101077.69
2023-05-21T06:17:17.545Z,101076.77
2023-05-21T06:18:16.904Z,101077.20
2023-05-21T06:19:17.400Z,101077.45
2023-05-21T06:20:17.851Z,101078.18
2023-05-21T06:21:18.304Z,101079.53
2023-05-21T06:22:19.203Z,101080.67
2023-05-21T06:22:27.829Z,100649.44
2023-05-21T06:23:28.639Z,101108.95
2023-05-21T06:24:29.324Z,101109.11
2023-05-21T06:25:29.881Z,101109.23
2023-05-21T06:26:30.462Z,101110.30
2023-05-21T06:27:31.167Z,101111.27
2023-05-21T06:28:31.942Z,101112.63
2023-05-21T06:29:32.557Z,101113.95
2023-05-21T06:30:32.564Z,101114.97
2023-05-21T06:31:34.312Z,101116.07
2023-05-21T06:32:34.106Z,101117.22
2023-05-21T06:33:34.696Z,101118.27
2023-05-21T06:34:35.033Z,101119.79
2023-05-21T06:35:35.842Z,101120.70
2023-05-21T06:36:35.967Z,101121.38
2023-05-21T06:37:36.370Z,101120.99
2023-05-21T06:38:36.926Z,101121.73
2023-05-21T06:39:37.326Z,101122.88
2023-05-21T06:40:37.793Z,101124.09
2023-05-21T06:41:38.228Z,101125.66
2023-05-21T06:42:38.562Z,101128.82
2023-05-21T06:43:38.628Z,101132.28
2023-05-21T06:44:38.998Z,101136.63
2023-05-21T06:45:39.538Z,101140.86
2023-05-21T06:46:39.730Z,101145.72
2023-05-21T06:47:40.273Z,101150.74
2023-05-21T06:48:40.412Z,101155.95
2023-05-21T06:49:40.748Z,101160.98
2023-05-21T06:50:41.081Z,101166.09
2023-05-21T06:51:41.601Z,101171.42
2023-05-21T06:52:41.949Z,101176.86
2023-05-21T06:52:50.965Z,100743.94
2023-05-21T06:53:51.300Z,101270.95
2023-05-21T06:54:51.688Z,101271.07
2023-05-21T06:55:52.064Z,101272.27
2023-05-21T06:56:52.812Z,101272.54
2023-05-21T06:57:53.389Z,101273.76
2023-05-21T06:58:53.931Z,101274.70
2023-05-21T06:59:54.269Z,101276.63
2023-05-21T07:00:54.600Z,101278.02
2023-05-21T07:01:55.035Z,101280.80
2023-05-21T07:02:55.483Z,101282.97
2023-05-21T07:03:55.998Z,101285.66
2023-05-21T07:04:56.331Z,101287.77
2023-05-21T07:05:56.869Z,101290.31
2023-05-21T07:06:57.272Z,101293.48
2023-05-21T07:07:57.660Z,101297.27
2023-05-21T07:08:58.095Z,101300.88
2023-05-21T07:09:58.442Z,101304.47
2023-05-21T07:10:58.880Z,101308.53
2023-05-21T07:11:59.897Z,101311.91
2023-05-21T07:13:00.357Z,101316.06
2023-05-21T07:14:00.663Z,101319.73
2023-05-21T07:15:00.975Z,101323.59
2023-05-21T07:16:01.312Z,101327.19
2023-05-21T07:17:01.859Z,101330.77
2023-05-21T07:18:02.276Z,101333.84
2023-05-21T07:19:02.602Z,101337.36
2023-05-21T07:20:02.933Z,101340.30
2023-05-21T07:21:03.274Z,101343.88
2023-05-21T07:22:03.788Z,101348.38
2023-05-21T07:23:04.204Z,101351.89
2023-05-21T07:24:04.891Z,101354.77
2023-05-21T07:25:05.524Z,101358.23
2023-05-21T07:25:17.667Z,100803.17
2023-05-21T07:26:19.250Z,101403.66
2023-05-21T07:27:25.897Z,101402.94
2023-05-21T07:28:19.589Z,101402.52
2023-05-21T07:29:20.232Z,101402.58
2023-05-21T07:30:21.080Z,101402.14
2023-05-21T07:31:21.730Z,101402.09
2023-05-21T07:32:22.362Z,101402.02
2023-05-21T07:33:23.040Z,101401.98
2023-05-21T07:34:23.617Z,101401.22
2023-05-21T07:35:24.207Z,101399.86
2023-05-21T07:36:24.795Z,101399.32
2023-05-21T07:37:25.505Z,101397.97
2023-05-21T07:38:26.038Z,101397.05
2023-05-21T07:39:27.754Z,101395.98
2023-05-21T07:40:27.345Z,101394.97
2023-05-21T07:41:28.024Z,101394.53
2023-05-21T07:42:28.728Z,101394.55
2023-05-21T07:43:29.368Z,101394.02
2023-05-21T07:44:29.864Z,101393.84
2023-05-21T07:45:30.468Z,101393.41
2023-05-21T07:46:31.078Z,101393.16
2023-05-21T07:47:31.720Z,101393.16
2023-05-21T07:48:34.267Z,101392.55
2023-05-21T07:49:32.906Z,101392.14
2023-05-21T07:50:33.556Z,101391.92
2023-05-21T07:51:34.308Z,101390.76
2023-05-21T07:52:34.991Z,101390.91
2023-05-21T07:53:35.498Z,101390.33
2023-05-21T07:54:36.199Z,101390.87
2023-05-21T07:55:37.056Z,101391.14
2023-05-21T07:55:45.417Z,100831.16
2023-05-21T07:56:45.973Z,101394.84
2023-05-21T07:57:46.283Z,101394.50
2023-05-21T08:00:39.559Z,101394.70
2023-05-21T08:01:39.424Z,101393.42
2023-05-21T08:02:39.920Z,101393.13
2023-05-21T08:03:40.662Z,101392.47
2023-05-21T08:04:41.554Z,101392.34
2023-05-21T08:05:41.861Z,101391.73
2023-05-21T08:06:42.590Z,101392.06
2023-05-21T08:07:43.164Z,101391.42
2023-05-21T08:08:44.084Z,101390.88
2023-05-21T08:09:44.674Z,101389.84
2023-05-21T08:10:45.221Z,101389.06
2023-05-21T08:11:45.830Z,101387.67
2023-05-21T08:12:46.337Z,101386.06
2023-05-21T08:13:46.466Z,101384.40
2023-05-21T08:14:47.144Z,101381.45
2023-05-21T08:15:47.758Z,101378.41
2023-05-21T08:16:48.394Z,101375.85
2023-05-21T08:17:49.140Z,101372.97
2023-05-21T08:18:49.622Z,101370.78
2023-05-21T08:19:50.197Z,101368.85
2023-05-21T08:20:50.725Z,101367.80
2023-05-21T08:21:53.001Z,101366.37
2023-05-21T08:22:52.306Z,101365.22
2023-05-21T08:23:52.976Z,101364.44
2023-05-21T08:24:53.767Z,101364.38
2023-05-21T08:25:54.329Z,101363.64
2023-05-21T08:26:54.940Z,101362.92
2023-05-21T08:27:03.595Z,100659.83
2023-05-21T08:28:04.164Z,101353.59
2023-05-21T08:29:04.799Z,101353.33
2023-05-21T08:30:05.443Z,101353.09
2023-05-21T08:31:06.108Z,101352.39
2023-05-21T08:32:06.867Z,101352.40
2023-05-21T08:33:07.290Z,101352.23
2023-05-21T08:34:07.850Z,101352.09
2023-05-21T08:35:08.400Z,101352.25
2023-05-21T08:36:09.011Z,101351.63
2023-05-21T08:37:09.697Z,101351.16
2023-05-21T08:38:10.258Z,101350.78
2023-05-21T08:39:10.826Z,101350.80
2023-05-21T08:40:11.445Z,101351.81
2023-05-21T08:41:12.170Z,101351.88
2023-05-21T08:42:13.153Z,101351.47
2023-05-21T08:43:12.341Z,101351.30
2023-05-21T08:44:12.909Z,101351.20
2023-05-21T08:45:13.467Z,101350.77
2023-05-21T08:46:14.172Z,101349.95
2023-05-21T08:47:14.675Z,101348.98
2023-05-21T08:48:15.234Z,101348.19
2023-05-21T08:49:15.738Z,101347.00
2023-05-21T08:50:16.667Z,101346.69
2023-05-21T08:51:16.796Z,101346.28
2023-05-21T08:52:17.383Z,101346.73
2023-05-21T08:53:27.484Z,101346.25
2023-05-21T08:54:18.653Z,101345.73
2023-05-21T08:55:19.756Z,101345.39
2023-05-21T08:56:20.469Z,101344.67
2023-05-21T08:57:21.091Z,101343.40
2023-05-21T08:58:21.674Z,101342.66
2023-05-21T08:59:22.291Z,101341.87
2023-05-21T08:59:31.444Z,100617.42
2023-05-21T09:00:32.311Z,101330.34
2023-05-21T09:01:33.042Z,101330.03
2023-05-21T09:02:33.566Z,101330.00
2023-05-21T09:03:34.110Z,101330.90
2023-05-21T09:04:34.748Z,101332.03
2023-05-21T09:05:35.630Z,101333.16
2023-05-21T09:06:36.204Z,101334.70
2023-05-21T09:07:36.932Z,101335.46
2023-05-21T09:08:37.616Z,101336.70
2023-05-21T09:09:38.280Z,101337.54
2023-05-21T09:10:38.875Z,101339.50
2023-05-21T09:11:39.369Z,101340.83
2023-05-21T09:12:39.979Z,101341.89
2023-05-21T09:13:40.007Z,101343.68
2023-05-21T09:14:40.969Z,101344.98
2023-05-21T09:15:41.076Z,101346.76
2023-05-21T09:16:41.282Z,101348.39
2023-05-21T09:17:41.831Z,101349.59
2023-05-21T09:18:42.579Z,101351.03
2023-05-21T09:19:43.348Z,101352.22
2023-05-21T09:20:43.756Z,101353.97
2023-05-21T09:21:44.536Z,101355.99
2023-05-21T09:22:45.110Z,101358.30
2023-05-21T09:23:45.986Z,101360.32
2023-05-21T09:24:46.626Z,101361.64
2023-05-21T09:25:47.382Z,101363.41
2023-05-21T09:26:47.764Z,101366.05
2023-05-21T09:27:51.095Z,101368.14
2023-05-21T09:28:49.025Z,101369.59
2023-05-21T09:29:58.495Z,100787.02
2023-05-21T09:30:59.435Z,101395.39
2023-05-21T09:32:02.456Z,101395.12
2023-05-21T09:33:00.770Z,101394.57
2023-05-21T09:34:01.367Z,101394.05
2023-05-21T09:35:02.057Z,101393.87
2023-05-21T09:36:03.009Z,101393.55
2023-05-21T09:37:04.973Z,101393.30
2023-05-21T09:38:03.299Z,101393.13
2023-05-21T09:39:05.084Z,101393.15
2023-05-21T09:40:05.087Z,101392.33
2023-05-21T09:41:05.835Z,101391.89
2023-05-21T09:42:05.916Z,101391.33
2023-05-21T09:43:06.424Z,101391.58
2023-05-21T09:44:07.119Z,101390.99
2023-05-21T09:45:07.104Z,101390.73
2023-05-21T09:46:07.514Z,101390.61
2023-05-21T09:47:08.345Z,101389.76
2023-05-21T09:48:09.082Z,101389.66
2023-05-21T09:49:09.198Z,101388.95
2023-05-21T09:50:09.652Z,101388.05
2023-05-21T09:51:12.909Z,101386.72
2023-05-21T09:52:11.391Z,101385.74
2023-05-21T09:53:12.207Z,101384.69
2023-05-21T09:54:19.779Z,101384.64
2023-05-21T09:55:13.063Z,101383.65
2023-05-21T09:56:13.289Z,101383.39
2023-05-21T09:57:13.672Z,101383.31
2023-05-21T09:58:16.523Z,101383.29
2023-05-21T09:59:15.347Z,101383.09
2023-05-21T10:00:16.139Z,101382.79
2023-05-21T10:00:31.992Z,100600.36
2023-05-21T10:01:32.553Z,101384.95
2023-05-21T10:02:33.361Z,101384.66
2023-05-21T10:03:35.626Z,101385.11
2023-05-21T10:04:41.407Z,101384.94
2023-05-21T10:05:34.092Z,101384.68
2023-05-21T10:06:41.357Z,101384.23
2023-05-21T10:07:34.998Z,101383.55
2023-05-21T10:08:38.242Z,101383.19
2023-05-21T10:09:35.915Z,101381.89
2023-05-21T10:10:36.076Z,101380.91
2023-05-21T10:11:36.100Z,101380.08
2023-05-21T10:12:37.030Z,101379.44
2023-05-21T10:13:37.241Z,101378.77
2023-05-21T10:14:40.489Z,101378.17
2023-05-21T10:15:38.238Z,101377.83
2023-05-21T10:16:39.004Z,101377.59
2023-05-21T10:17:39.864Z,101376.91
2023-05-21T10:18:40.429Z,101376.21
2023-05-21T10:19:41.116Z,101375.34
2023-05-21T10:20:41.749Z,101374.46
2023-05-21T10:21:42.100Z,101373.75
2023-05-21T10:22:42.736Z,101373.02
2023-05-21T10:23:43.437Z,101372.13
2023-05-21T10:24:43.614Z,101371.16
2023-05-21T10:25:43.878Z,101370.33
2023-05-21T10:26:44.126Z,101369.55
2023-05-21T10:27:44.115Z,101367.78
2023-05-21T10:28:44.865Z,101366.30
2023-05-21T10:29:44.901Z,101364.67
2023-05-21T10:30:45.566Z,101363.42
2023-05-21T10:30:54.813Z,100178.19
2023-05-21T10:31:54.901Z,101340.98
2023-05-21T10:32:56.029Z,101340.21
2023-05-21T10:33:56.557Z,101340.36
2023-05-21T10:35:58.543Z,101340.95
2023-05-21T10:36:58.552Z,101340.80
2023-05-21T10:37:59.069Z,101340.62
2023-05-21T10:38:59.731Z,101340.86
2023-05-21T10:40:00.754Z,101340.91
2023-05-21T10:41:01.287Z,101340.72
2023-05-21T10:42:02.241Z,101341.00
2023-05-21T10:43:03.937Z,101340.73
2023-05-21T10:44:03.884Z,101340.59
2023-05-21T10:45:04.658Z,101340.33
2023-05-21T10:46:05.615Z,101339.39
2023-05-21T10:47:06.244Z,101338.15
2023-05-21T10:48:06.465Z,101336.90
2023-05-21T10:49:07.080Z,101336.37
2023-05-21T10:50:07.244Z,101335.64
2023-05-21T10:51:07.361Z,101335.61
2023-05-21T10:52:08.072Z,101335.20
2023-05-21T10:53:10.544Z,101334.73
2023-05-21T10:54:08.164Z,101334.42
2023-05-21T10:55:08.804Z,101334.70
2023-05-21T10:56:09.361Z,101334.56
2023-05-21T10:57:10.170Z,101334.41
2023-05-21T10:58:10.776Z,101333.52
2023-05-21T10:59:11.675Z,101333.70
2023-05-21T11:00:12.463Z,101332.54
2023-05-21T11:01:12.489Z,101332.97
2023-05-21T11:02:13.211Z,101333.11
2023-05-21T11:03:14.078Z,101332.59
2023-05-21T11:04:13.996Z,101332.51
2023-05-21T11:04:26.327Z,100099.16
2023-05-21T11:05:24.393Z,101325.81
2023-05-21T11:06:27.458Z,101325.23
2023-05-21T11:07:28.267Z,101324.97
2023-05-21T11:08:26.009Z,101325.45
2023-05-21T11:09:26.759Z,101325.73
2023-05-21T11:10:32.613Z,101325.23
2023-05-21T11:11:30.320Z,101324.92
2023-05-21T11:12:28.978Z,101325.14
2023-05-21T11:13:32.353Z,101324.59
2023-05-21T11:14:32.779Z,101323.75
2023-05-21T11:15:30.456Z,101322.88
2023-05-21T11:16:30.628Z,101322.36